Time;durP1;ratioP1;P1;durP2;ratioP2;P2;SDS_P1;SDS_P2;PMS_P1;PMS_P2;Temp;Humidity;BMP_temperature;BMP_pressure;BME280_temperature;BME280_humidity;BME280_pressure;Samples;Min_cycle;Max_cycle;Signal;HPM_P1;HPM_P2
2024/01/17 00:01:21;;;;;;;19.80;9.77;;;;;;;;;;5081961;28;20048;-65
2024/01/17 00:03:46;;;;;;;16.33;9.37;;;;;;;;;;5077982;28;20111;-64
2024/01/17 00:06:11;;;;;;;20.97;10.10;;;;;;;;;;5071859;28;20031;-64
2024/01/17 00:08:37;;;;;;;17.73;8.47;;;;;;;;;;5080419;28;20469;-65
2024/01/17 00:11:02;;;;;;;19.83;9.83;;;;;;;;;;5077188;28;20115;-64
2024/01/17 00:13:27;;;;;;;19.87;8.70;;;;;;;;;;5075374;28;20021;-65
2024/01/17 00:15:53;;;;;;;14.60;7.70;;;;;;;;;;5075704;28;20107;-65
2024/01/17 00:18:18;;;;;;;20.20;9.50;;;;;;;;;;5078674;28;20087;-65
2024/01/17 00:20:43;;;;;;;21.00;8.87;;;;;;;;;;5069915;28;20063;-65
2024/01/17 00:23:08;;;;;;;20.77;10.00;;;;;;;;;;5076505;28;20070;-64
2024/01/17 00:25:34;;;;;;;17.23;9.60;;;;;;;;;;5074502;28;20096;-65
2024/01/17 00:27:59;;;;;;;19.03;9.30;;;;;;;;;;5077538;28;20027;-65
2024/01/17 00:30:25;;;;;;;20.13;9.77;;;;;;;;;;5074540;28;20023;-64
2024/01/17 00:32:50;;;;;;;16.77;9.27;;;;;;;;;;5075869;28;20016;-65
2024/01/17 00:35:15;;;;;;;16.07;9.47;;;;;;;;;;5080038;28;20507;-65
2024/01/17 00:37:41;;;;;;;21.93;9.60;;;;;;;;;;5075354;28;20044;-65
2024/01/17 00:40:07;;;;;;;19.33;10.43;;;;;;;;;;5069951;28;20017;-65
2024/01/17 00:42:32;;;;;;;23.43;9.30;;;;;;;;;;5068884;28;20028;-65
2024/01/17 00:44:58;;;;;;;22.10;10.53;;;;;;;;;;5067544;28;20418;-64
2024/01/17 00:47:24;;;;;;;21.60;10.77;;;;;;;;;;5077438;28;20012;-64
2024/01/17 00:49:49;;;;;;;23.60;10.83;;;;;;;;;;5075108;28;20066;-64
2024/01/17 00:52:14;;;;;;;19.97;10.20;;;;;;;;;;5070015;28;20024;-65
2024/01/17 00:54:39;;;;;;;22.73;10.93;;;;;;;;;;5070610;28;20423;-64
2024/01/17 00:57:05;;;;;;;20.57;10.53;;;;;;;;;;5082296;28;20017;-65
2024/01/17 00:59:30;;;;;;;24.47;11.60;;;;;;;;;;5076393;28;20024;-64
2024/01/17 01:01:55;;;;;;;23.43;10.30;;;;;;;;;;5072670;28;20045;-65
2024/01/17 01:04:21;;;;;;;20.40;10.63;;;;;;;;;;5073038;28;20052;-64
2024/01/17 01:06:46;;;;;;;20.83;11.23;;;;;;;;;;5075126;28;20051;-65
2024/01/17 01:09:11;;;;;;;21.90;10.60;;;;;;;;;;5074037;28;20028;-64
2024/01/17 01:11:36;;;;;;;21.07;10.87;;;;;;;;;;5072610;28;20023;-64
2024/01/17 01:14:02;;;;;;;21.03;9.73;;;;;;;;;;5076961;28;20034;-65
2024/01/17 01:16:27;;;;;;;17.27;9.57;;;;;;;;;;5079158;28;20150;-65
2024/01/17 01:18:53;;;;;;;21.07;11.10;;;;;;;;;;5075415;28;20043;-65
2024/01/17 01:21:19;;;;;;;18.40;9.27;;;;;;;;;;5072391;28;20037;-65
2024/01/17 01:23:44;;;;;;;18.50;10.57;;;;;;;;;;5074466;28;20034;-66
2024/01/17 01:26:09;;;;;;;26.77;12.07;;;;;;;;;;5081735;28;20032;-65
2024/01/17 01:28:35;;;;;;;26.27;10.47;;;;;;;;;;5074158;28;20021;-64
2024/01/17 01:31:00;;;;;;;21.33;11.23;;;;;;;;;;5071659;28;20512;-65
2024/01/17 01:33:25;;;;;;;22.80;10.57;;;;;;;;;;5078237;28;20042;-65
2024/01/17 01:35:50;;;;;;;23.90;9.83;;;;;;;;;;5080899;28;20388;-65
2024/01/17 01:38:16;;;;;;;19.10;10.47;;;;;;;;;;5071467;28;20031;-65
2024/01/17 01:40:41;;;;;;;26.57;10.67;;;;;;;;;;5073457;28;20024;-65
2024/01/17 01:43:16;;;;;;;20.83;10.80;;;;;;;;;;5071894;28;20032;-68
2024/01/17 01:45:41;;;;;;;23.27;10.67;;;;;;;;;;5082760;28;20461;-68
2024/01/17 01:48:07;;;;;;;22.60;11.57;;;;;;;;;;5075977;28;20066;-68
2024/01/17 01:50:32;;;;;;;18.70;9.67;;;;;;;;;;5072370;28;20062;-68
2024/01/17 01:52:57;;;;;;;20.83;10.70;;;;;;;;;;5066862;28;20036;-68
2024/01/17 01:55:22;;;;;;;14.87;7.57;;;;;;;;;;5076288;28;20094;-68
2024/01/17 01:57:50;;;;;;;21.60;10.13;;;;;;;;;;5076488;28;20056;-68
2024/01/17 02:00:17;;;;;;;20.10;8.73;;;;;;;;;;5072640;28;20428;-68
2024/01/17 02:02:43;;;;;;;24.57;10.30;;;;;;;;;;5073201;28;20036;-68
2024/01/17 02:05:08;;;;;;;20.20;10.77;;;;;;;;;;5075851;28;20105;-68
2024/01/17 02:07:34;;;;;;;18.53;9.80;;;;;;;;;;5076141;28;20024;-68
2024/01/17 02:10:01;;;;;;;20.07;9.03;;;;;;;;;;5074923;28;20381;-68
2024/01/17 02:12:27;;;;;;;20.97;10.10;;;;;;;;;;5070023;28;20473;-69
2024/01/17 02:14:52;;;;;;;21.83;9.80;;;;;;;;;;5077131;28;20133;-68
2024/01/17 02:17:17;;;;;;;17.33;8.70;;;;;;;;;;5076427;28;20055;-69
2024/01/17 02:19:42;;;;;;;22.53;9.60;;;;;;;;;;5076322;28;20036;-68
2024/01/17 02:22:08;;;;;;;17.20;9.20;;;;;;;;;;5074155;28;20392;-68
2024/01/17 02:24:33;;;;;;;22.10;11.00;;;;;;;;;;5078933;28;20029;-68
2024/01/17 02:26:59;;;;;;;21.73;10.37;;;;;;;;;;5074339;28;20400;-68
2024/01/17 02:29:25;;;;;;;17.37;9.00;;;;;;;;;;5083033;28;20030;-68
2024/01/17 02:31:51;;;;;;;21.27;9.90;;;;;;;;;;5075232;28;20039;-68
2024/01/17 02:34:16;;;;;;;20.67;9.87;;;;;;;;;;5080160;28;20028;-68
2024/01/17 02:36:41;;;;;;;12.33;6.63;;;;;;;;;;5072997;28;20044;-68
2024/01/17 02:39:07;;;;;;;25.40;10.10;;;;;;;;;;5075779;28;20032;-68
2024/01/17 02:41:32;;;;;;;19.03;9.73;;;;;;;;;;5077139;28;20025;-68
2024/01/17 02:43:57;;;;;;;16.43;8.80;;;;;;;;;;5078386;28;20457;-68
2024/01/17 02:46:25;;;;;;;17.77;8.10;;;;;;;;;;5077241;28;20086;-68
2024/01/17 02:48:51;;;;;;;14.13;7.17;;;;;;;;;;5072494;28;20055;-68
2024/01/17 02:51:16;;;;;;;17.17;8.60;;;;;;;;;;5073135;28;20028;-68
2024/01/17 02:53:41;;;;;;;17.80;9.47;;;;;;;;;;5078381;28;20418;-65
2024/01/17 02:56:07;;;;;;;21.90;9.73;;;;;;;;;;5078800;28;20086;-65
2024/01/17 02:58:32;;;;;;;16.83;9.73;;;;;;;;;;5068721;28;20021;-65
2024/01/17 03:00:57;;;;;;;20.93;9.97;;;;;;;;;;5068525;28;20508;-65
2024/01/17 03:03:23;;;;;;;20.20;9.50;;;;;;;;;;5072442;28;20052;-65
2024/01/17 03:05:48;;;;;;;18.10;9.70;;;;;;;;;;5071388;28;20033;-65
2024/01/17 03:08:13;;;;;;;17.30;9.00;;;;;;;;;;5072505;28;20472;-65
2024/01/17 03:10:38;;;;;;;24.53;10.40;;;;;;;;;;5069966;28;20071;-65
2024/01/17 03:13:04;;;;;;;19.97;10.70;;;;;;;;;;5073346;28;20077;-65
2024/01/17 03:15:29;;;;;;;19.57;10.50;;;;;;;;;;5079666;28;20044;-65
2024/01/17 03:17:55;;;;;;;19.43;10.23;;;;;;;;;;5080282;28;20111;-65
2024/01/17 03:20:21;;;;;;;18.03;9.33;;;;;;;;;;5071471;28;20020;-65
2024/01/17 03:22:47;;;;;;;18.57;9.90;;;;;;;;;;5074569;28;20468;-66
2024/01/17 03:25:12;;;;;;;17.43;8.27;;;;;;;;;;5079497;28;20031;-65
2024/01/17 03:27:37;;;;;;;23.23;9.53;;;;;;;;;;5078918;28;20433;-66
2024/01/17 03:30:04;;;;;;;20.07;10.70;;;;;;;;;;5077861;28;20023;-64
2024/01/17 03:32:29;;;;;;;20.93;9.50;;;;;;;;;;5076269;28;20041;-65
2024/01/17 03:34:55;;;;;;;19.77;9.77;;;;;;;;;;5077334;28;20028;-65
2024/01/17 03:37:21;;;;;;;21.83;9.53;;;;;;;;;;5078916;28;20035;-65
2024/01/17 03:39:46;;;;;;;19.17;9.27;;;;;;;;;;5077463;28;20667;-65
2024/01/17 03:42:16;;;;;;;18.03;9.80;;;;;;;;;;5070682;28;20325;-65
2024/01/17 03:44:42;;;;;;;15.33;7.67;;;;;;;;;;5078597;28;20020;-65
2024/01/17 03:47:08;;;;;;;21.27;9.73;;;;;;;;;;5075286;28;20057;-65
2024/01/17 03:49:33;;;;;;;18.10;10.17;;;;;;;;;;5072429;28;20465;-66
2024/01/17 03:51:59;;;;;;;15.60;7.83;;;;;;;;;;5072706;28;20124;-66
2024/01/17 03:54:24;;;;;;;20.90;10.07;;;;;;;;;;5077825;28;20077;-65
2024/01/17 03:56:49;;;;;;;22.20;9.57;;;;;;;;;;5074715;28;20025;-66
2024/01/17 03:59:15;;;;;;;16.17;7.47;;;;;;;;;;5071082;28;20038;-65
2024/01/17 04:01:44;;;;;;;19.13;9.73;;;;;;;;;;5075625;28;20541;-65
2024/01/17 04:04:09;;;;;;;18.33;8.80;;;;;;;;;;5076434;28;20050;-68
2024/01/17 04:06:35;;;;;;;15.80;9.07;;;;;;;;;;5073064;28;20497;-69
2024/01/17 04:09:00;;;;;;;17.53;8.50;;;;;;;;;;5071808;28;20028;-68
2024/01/17 04:11:25;;;;;;;15.17;6.53;;;;;;;;;;5072416;28;20023;-68
2024/01/17 04:13:51;;;;;;;18.50;8.20;;;;;;;;;;5073588;28;20036;-68
2024/01/17 04:16:17;;;;;;;18.73;8.60;;;;;;;;;;5074092;28;20033;-68
2024/01/17 04:18:42;;;;;;;17.10;7.13;;;;;;;;;;5070366;28;20122;-68
2024/01/17 04:21:08;;;;;;;15.97;6.33;;;;;;;;;;5071217;28;20481;-68
2024/01/17 04:23:33;;;;;;;19.47;9.27;;;;;;;;;;5078104;28;20036;-68
2024/01/17 04:25:58;;;;;;;17.27;7.67;;;;;;;;;;5076436;28;20055;-68
2024/01/17 04:28:23;;;;;;;18.73;8.60;;;;;;;;;;5075576;28;20023;-68
2024/01/17 04:30:49;;;;;;;19.40;8.43;;;;;;;;;;5072717;28;20021;-68
2024/01/17 04:33:14;;;;;;;16.20;7.33;;;;;;;;;;5077308;28;20397;-68
2024/01/17 04:35:40;;;;;;;16.30;7.27;;;;;;;;;;5078956;28;20028;-68
2024/01/17 04:38:05;;;;;;;16.90;8.60;;;;;;;;;;5072976;28;20032;-68
2024/01/17 04:40:31;;;;;;;21.43;8.07;;;;;;;;;;5066195;28;20024;-68
2024/01/17 04:42:56;;;;;;;19.07;9.07;;;;;;;;;;5070937;28;20115;-69
2024/01/17 04:45:21;;;;;;;16.27;7.47;;;;;;;;;;5077734;28;20089;-68
2024/01/17 04:47:47;;;;;;;18.73;9.23;;;;;;;;;;5075616;28;20025;-68
2024/01/17 04:50:13;;;;;;;21.10;8.80;;;;;;;;;;5074126;28;20074;-68
2024/01/17 04:52:38;;;;;;;18.47;8.87;;;;;;;;;;5077897;28;20427;-68
2024/01/17 04:55:04;;;;;;;18.70;8.97;;;;;;;;;;5073829;28;20032;-68
2024/01/17 04:57:30;;;;;;;18.63;9.20;;;;;;;;;;5075150;28;20029;-69
2024/01/17 04:59:55;;;;;;;18.37;9.10;;;;;;;;;;5073378;28;20361;-68
2024/01/17 05:02:20;;;;;;;21.47;9.57;;;;;;;;;;5082649;28;20056;-69
2024/01/17 05:04:45;;;;;;;20.33;10.40;;;;;;;;;;5074946;28;20047;-68
2024/01/17 05:07:11;;;;;;;21.77;10.20;;;;;;;;;;5067290;28;20065;-68
2024/01/17 05:09:37;;;;;;;18.60;10.43;;;;;;;;;;5076820;28;20043;-68
2024/01/17 05:12:03;;;;;;;20.80;10.20;;;;;;;;;;5079342;28;20020;-68
2024/01/17 05:14:28;;;;;;;19.37;9.70;;;;;;;;;;5075864;28;20195;-65
2024/01/17 05:16:53;;;;;;;19.70;10.30;;;;;;;;;;5070008;28;20028;-65
2024/01/17 05:19:19;;;;;;;19.77;10.27;;;;;;;;;;5069701;28;20147;-66
2024/01/17 05:21:44;;;;;;;20.87;10.20;;;;;;;;;;5075734;28;20032;-65
2024/01/17 05:24:09;;;;;;;20.97;9.67;;;;;;;;;;5071462;28;20060;-65
2024/01/17 05:26:35;;;;;;;22.07;10.67;;;;;;;;;;5071037;28;20029;-66
2024/01/17 05:29:00;;;;;;;19.70;11.07;;;;;;;;;;5066225;28;20469;-64
2024/01/17 05:31:25;;;;;;;21.53;10.87;;;;;;;;;;5071849;28;20021;-65
2024/01/17 05:33:51;;;;;;;18.60;9.87;;;;;;;;;;5071681;28;20484;-66
2024/01/17 05:36:16;;;;;;;21.10;10.90;;;;;;;;;;5065573;28;20059;-65
2024/01/17 05:38:41;;;;;;;21.87;10.90;;;;;;;;;;5069373;28;20109;-65
2024/01/17 05:41:06;;;;;;;23.17;10.57;;;;;;;;;;5074930;28;20542;-65
2024/01/17 05:43:32;;;;;;;22.57;10.43;;;;;;;;;;5074323;28;20067;-65
2024/01/17 05:45:57;;;;;;;21.67;11.10;;;;;;;;;;5074366;28;20021;-65
2024/01/17 05:48:26;;;;;;;21.37;10.83;;;;;;;;;;5072501;28;20017;-65
2024/01/17 05:50:51;;;;;;;22.70;11.10;;;;;;;;;;5075760;28;20032;-66
2024/01/17 05:53:16;;;;;;;20.30;10.50;;;;;;;;;;5078158;28;20285;-65
2024/01/17 05:55:42;;;;;;;24.57;11.33;;;;;;;;;;5068657;28;20109;-65
2024/01/17 05:58:09;;;;;;;23.73;11.63;;;;;;;;;;5071821;28;20101;-65
2024/01/17 06:00:34;;;;;;;23.03;11.90;;;;;;;;;;5078275;28;20451;-65
2024/01/17 06:02:59;;;;;;;22.00;11.20;;;;;;;;;;5073678;28;20136;-65
2024/01/17 06:05:24;;;;;;;23.53;11.67;;;;;;;;;;5073941;28;20393;-65
2024/01/17 06:07:50;;;;;;;22.80;10.50;;;;;;;;;;5073445;28;20031;-65
2024/01/17 06:10:15;;;;;;;19.47;9.73;;;;;;;;;;5079398;28;20047;-66
2024/01/17 06:12:40;;;;;;;20.07;10.17;;;;;;;;;;5075313;28;20040;-65
2024/01/17 06:15:06;;;;;;;23.60;11.10;;;;;;;;;;5067752;28;20515;-65
2024/01/17 06:17:31;;;;;;;21.73;10.60;;;;;;;;;;5073533;28;20397;-65
2024/01/17 06:19:57;;;;;;;20.43;10.67;;;;;;;;;;5078809;28;20040;-66
2024/01/17 06:22:22;;;;;;;22.73;10.97;;;;;;;;;;5072258;28;20477;-66
2024/01/17 06:24:47;;;;;;;23.87;11.00;;;;;;;;;;5066449;28;20025;-66
2024/01/17 06:27:14;;;;;;;20.43;10.70;;;;;;;;;;5072685;28;20058;-65
2024/01/17 06:29:43;;;;;;;20.80;10.17;;;;;;;;;;5082092;28;20020;-66
2024/01/17 06:32:08;;;;;;;23.73;10.80;;;;;;;;;;5077450;28;20020;-65
2024/01/17 06:34:33;;;;;;;21.13;11.63;;;;;;;;;;5068956;28;20266;-66
2024/01/17 06:36:58;;;;;;;18.87;10.43;;;;;;;;;;5066967;28;20969;-65
2024/01/17 06:39:24;;;;;;;25.27;11.20;;;;;;;;;;5074299;28;20020;-65
2024/01/17 06:41:49;;;;;;;20.57;10.23;;;;;;;;;;5074571;28;20024;-66
2024/01/17 06:44:14;;;;;;;21.57;10.50;;;;;;;;;;5074178;28;20143;-66
2024/01/17 06:46:40;;;;;;;20.13;10.10;;;;;;;;;;5072596;28;20020;-66
2024/01/17 06:49:05;;;;;;;19.70;10.13;;;;;;;;;;5069190;28;20033;-66
2024/01/17 06:51:30;;;;;;;25.80;10.23;;;;;;;;;;5078255;28;20047;-67
2024/01/17 06:53:56;;;;;;;17.77;9.80;;;;;;;;;;5076480;28;20115;-66
2024/01/17 06:56:21;;;;;;;24.07;11.00;;;;;;;;;;5075969;28;20024;-65
2024/01/17 06:58:46;;;;;;;26.87;9.50;;;;;;;;;;5074303;28;20030;-66
2024/01/17 07:01:11;;;;;;;18.20;9.40;;;;;;;;;;5075999;28;20056;-65
2024/01/17 07:03:37;;;;;;;22.07;9.97;;;;;;;;;;5076518;28;20126;-66
2024/01/17 07:06:04;;;;;;;20.20;9.87;;;;;;;;;;5076767;28;20043;-65
2024/01/17 07:08:29;;;;;;;23.37;9.93;;;;;;;;;;5077338;28;20024;-67
2024/01/17 07:10:54;;;;;;;19.97;9.40;;;;;;;;;;5077656;28;20259;-65
2024/01/17 07:13:19;;;;;;;22.73;9.07;;;;;;;;;;5077996;28;20032;-65
2024/01/17 07:15:45;;;;;;;18.20;9.20;;;;;;;;;;5080585;28;20030;-66
2024/01/17 07:18:10;;;;;;;18.43;8.47;;;;;;;;;;5075552;28;20028;-66
2024/01/17 07:20:36;;;;;;;23.80;10.20;;;;;;;;;;5075321;28;20105;-66
2024/01/17 07:23:02;;;;;;;17.87;8.83;;;;;;;;;;5068898;28;20381;-65
2024/01/17 07:25:27;;;;;;;18.90;9.10;;;;;;;;;;5075700;28;20267;-66
2024/01/17 07:27:52;;;;;;;16.60;8.43;;;;;;;;;;5084056;28;20051;-65
2024/01/17 07:30:19;;;;;;;19.63;9.40;;;;;;;;;;5078239;28;20111;-66
2024/01/17 07:32:45;;;;;;;16.70;8.77;;;;;;;;;;5068984;28;20104;-65
2024/01/17 07:35:10;;;;;;;19.40;8.50;;;;;;;;;;5069015;28;20021;-66
2024/01/17 07:37:35;;;;;;;15.97;8.60;;;;;;;;;;5080038;28;20021;-66
2024/01/17 07:40:01;;;;;;;18.53;8.90;;;;;;;;;;5074371;28;20028;-65
2024/01/17 07:42:26;;;;;;;20.10;8.37;;;;;;;;;;5076132;28;20028;-66
2024/01/17 07:44:51;;;;;;;15.80;7.33;;;;;;;;;;5067375;28;20119;-66
2024/01/17 07:47:17;;;;;;;18.27;8.23;;;;;;;;;;5068214;28;20019;-65
2024/01/17 07:49:43;;;;;;;18.73;7.73;;;;;;;;;;5076125;28;20027;-66
2024/01/17 07:52:09;;;;;;;21.37;7.90;;;;;;;;;;5070367;28;20721;-65
2024/01/17 07:54:35;;;;;;;15.93;8.50;;;;;;;;;;5073331;28;20034;-66
2024/01/17 07:57:00;;;;;;;19.97;7.87;;;;;;;;;;5071159;28;20025;-65
2024/01/17 07:59:26;;;;;;;15.53;8.07;;;;;;;;;;5076387;28;20025;-66
2024/01/17 08:01:52;;;;;;;16.23;7.70;;;;;;;;;;5075515;28;20049;-66
2024/01/17 08:04:17;;;;;;;18.40;7.20;;;;;;;;;;5073739;28;20028;-67
2024/01/17 08:06:46;;;;;;;15.00;7.40;;;;;;;;;;5070120;28;20031;-66
2024/01/17 08:09:27;;;;;;;17.80;7.73;;;;;;;;;;5077622;28;20107;-66
2024/01/17 08:11:54;;;;;;;13.67;6.80;;;;;;;;;;5079342;28;20465;-66
2024/01/17 08:14:19;;;;;;;11.00;5.60;;;;;;;;;;5077784;28;20147;-65
2024/01/17 08:16:45;;;;;;;16.90;7.87;;;;;;;;;;5074522;28;20116;-66
2024/01/17 08:19:11;;;;;;;18.00;7.80;;;;;;;;;;5081680;28;20090;-66
2024/01/17 08:21:36;;;;;;;16.33;7.43;;;;;;;;;;5077416;28;20052;-66
2024/01/17 08:24:02;;;;;;;15.93;7.77;;;;;;;;;;5078042;28;20028;-65
2024/01/17 08:26:27;;;;;;;18.57;7.47;;;;;;;;;;5078691;28;20024;-66
2024/01/17 08:28:52;;;;;;;18.30;7.73;;;;;;;;;;5074191;28;20472;-65
2024/01/17 08:31:17;;;;;;;14.63;6.67;;;;;;;;;;5075403;28;20028;-66
2024/01/17 08:33:43;;;;;;;16.23;7.40;;;;;;;;;;5077476;28;20028;-66
2024/01/17 08:36:08;;;;;;;17.03;7.53;;;;;;;;;;5082244;28;20039;-65
2024/01/17 08:38:34;;;;;;;15.17;7.27;;;;;;;;;;5076088;28;20031;-66
2024/01/17 08:41:00;;;;;;;16.73;7.63;;;;;;;;;;5074736;28;20104;-66
2024/01/17 08:43:25;;;;;;;16.83;7.13;;;;;;;;;;5067199;28;20517;-66
2024/01/17 08:45:51;;;;;;;19.93;8.00;;;;;;;;;;5075162;28;20546;-70
2024/01/17 08:48:16;;;;;;;16.60;7.60;;;;;;;;;;5067970;28;20033;-69
2024/01/17 08:50:41;;;;;;;16.53;7.47;;;;;;;;;;5069394;28;20069;-69
2024/01/17 08:53:06;;;;;;;14.87;7.37;;;;;;;;;;5073991;28;20036;-69
2024/01/17 08:55:32;;;;;;;17.40;7.50;;;;;;;;;;5066679;28;20452;-70
2024/01/17 08:57:57;;;;;;;18.27;7.43;;;;;;;;;;5072447;28;20031;-69
2024/01/17 09:00:22;;;;;;;17.30;7.63;;;;;;;;;;5074141;28;20028;-70
2024/01/17 09:02:47;;;;;;;17.00;7.17;;;;;;;;;;5072455;28;20131;-69
2024/01/17 09:05:13;;;;;;;16.47;7.47;;;;;;;;;;5064346;28;20413;-69
2024/01/17 09:07:39;;;;;;;17.23;7.70;;;;;;;;;;5081115;28;20032;-69
2024/01/17 09:10:04;;;;;;;16.60;7.20;;;;;;;;;;5073510;28;20119;-69
2024/01/17 09:12:30;;;;;;;16.87;7.47;;;;;;;;;;5075315;28;20081;-69
2024/01/17 09:14:55;;;;;;;17.33;6.87;;;;;;;;;;5066710;28;20098;-69
2024/01/17 09:17:20;;;;;;;19.87;7.70;;;;;;;;;;5075834;28;20020;-69
2024/01/17 09:19:46;;;;;;;19.37;7.33;;;;;;;;;;5078587;28;20025;-69
2024/01/17 09:22:12;;;;;;;18.00;7.60;;;;;;;;;;5077377;28;20047;-69
2024/01/17 09:24:37;;;;;;;17.90;6.57;;;;;;;;;;5075148;28;20028;-69
2024/01/17 09:27:02;;;;;;;18.00;6.97;;;;;;;;;;5074165;28;20406;-69
2024/01/17 09:29:33;;;;;;;15.87;6.80;;;;;;;;;;5074043;28;20016;-69
2024/01/17 09:31:58;;;;;;;16.53;7.50;;;;;;;;;;5074294;28;20485;-67
2024/01/17 09:34:23;;;;;;;17.23;7.60;;;;;;;;;;5073419;28;20019;-67
2024/01/17 09:36:50;;;;;;;16.43;7.13;;;;;;;;;;5079960;28;20031;-67
2024/01/17 09:39:15;;;;;;;16.57;7.70;;;;;;;;;;5074090;28;20024;-67
2024/01/17 09:41:41;;;;;;;16.83;7.77;;;;;;;;;;5074045;28;20039;-67
2024/01/17 09:44:07;;;;;;;15.63;7.70;;;;;;;;;;5074108;28;20034;-67
2024/01/17 09:46:34;;;;;;;16.93;7.67;;;;;;;;;;5077809;28;20024;-67
2024/01/17 09:48:59;;;;;;;17.33;6.90;;;;;;;;;;5070569;28;20025;-67
2024/01/17 09:51:25;;;;;;;14.73;6.97;;;;;;;;;;5066375;28;20028;-67
2024/01/17 09:53:51;;;;;;;15.80;7.67;;;;;;;;;;5070310;28;20054;-67
2024/01/17 09:56:17;;;;;;;16.33;7.67;;;;;;;;;;5074291;28;20070;-67
2024/01/17 09:58:43;;;;;;;15.83;6.17;;;;;;;;;;5072814;28;20067;-68
2024/01/17 10:01:08;;;;;;;16.60;7.90;;;;;;;;;;5073564;28;20477;-67
2024/01/17 10:03:36;;;;;;;17.17;7.47;;;;;;;;;;5068708;28;20475;-67
2024/01/17 10:06:02;;;;;;;16.70;7.70;;;;;;;;;;5076506;28;20020;-67
2024/01/17 10:08:29;;;;;;;16.70;7.73;;;;;;;;;;5078464;28;20429;-67
2024/01/17 10:10:54;;;;;;;14.37;7.27;;;;;;;;;;5071214;28;20024;-68
2024/01/17 10:13:20;;;;;;;18.50;7.70;;;;;;;;;;5069831;28;20082;-67
2024/01/17 10:15:45;;;;;;;17.37;7.63;;;;;;;;;;5074587;28;20028;-67
2024/01/17 10:18:11;;;;;;;17.27;8.40;;;;;;;;;;5077145;28;20054;-64
2024/01/17 10:20:36;;;;;;;16.13;7.23;;;;;;;;;;5076373;28;20020;-67
2024/01/17 10:23:03;;;;;;;15.80;7.30;;;;;;;;;;5072270;28;20040;-67
2024/01/17 10:25:36;;;;;;;16.80;8.17;;;;;;;;;;5074884;28;20024;-67
2024/01/17 10:28:01;;;;;;;17.63;7.57;;;;;;;;;;5079310;28;20023;-67
2024/01/17 10:30:26;;;;;;;17.60;7.47;;;;;;;;;;5073795;28;20021;-67
2024/01/17 10:32:51;;;;;;;17.57;7.70;;;;;;;;;;5077543;28;20678;-67
2024/01/17 10:35:19;;;;;;;16.40;7.43;;;;;;;;;;5082773;28;20031;-67
2024/01/17 10:37:45;;;;;;;15.60;7.83;;;;;;;;;;5077369;28;20049;-67
2024/01/17 10:40:13;;;;;;;17.37;6.60;;;;;;;;;;5076741;28;20028;-67
2024/01/17 10:42:40;;;;;;;18.80;7.07;;;;;;;;;;5076261;28;20060;-67
2024/01/17 10:45:06;;;;;;;15.47;7.93;;;;;;;;;;5077780;28;20492;-67
2024/01/17 10:47:31;;;;;;;23.87;8.53;;;;;;;;;;5074215;28;20024;-67
2024/01/17 10:49:57;;;;;;;17.43;8.13;;;;;;;;;;5066855;28;20021;-67
2024/01/17 10:52:24;;;;;;;17.90;7.90;;;;;;;;;;5081098;28;20052;-67
2024/01/17 10:54:50;;;;;;;16.33;7.77;;;;;;;;;;5071595;28;20032;-67
2024/01/17 10:57:18;;;;;;;16.87;8.03;;;;;;;;;;5074928;28;20043;-67
2024/01/17 10:59:47;;;;;;;14.83;7.47;;;;;;;;;;5068666;28;20069;-67
2024/01/17 11:02:19;;;;;;;15.23;7.17;;;;;;;;;;5077813;28;20047;-67
2024/01/17 11:04:45;;;;;;;13.67;6.90;;;;;;;;;;5072686;28;20439;-67
2024/01/17 11:07:11;;;;;;;14.50;7.50;;;;;;;;;;5077460;28;20015;-65
2024/01/17 11:09:37;;;;;;;16.53;8.00;;;;;;;;;;5070342;28;20020;-65
2024/01/17 11:12:03;;;;;;;15.67;7.87;;;;;;;;;;5070564;28;20114;-65
2024/01/17 11:14:31;;;;;;;19.33;8.53;;;;;;;;;;5076748;28;20577;-65
2024/01/17 11:16:59;;;;;;;13.93;7.43;;;;;;;;;;5072759;28;20029;-64
2024/01/17 11:19:25;;;;;;;14.53;7.17;;;;;;;;;;5071774;28;20024;-64
2024/01/17 11:21:50;;;;;;;13.90;6.93;;;;;;;;;;5068495;28;20393;-65
2024/01/17 11:24:37;;;;;;;18.87;7.97;;;;;;;;;;5072426;28;20017;-64
2024/01/17 11:27:10;;;;;;;13.40;6.70;;;;;;;;;;5077313;28;20028;-64
2024/01/17 11:30:01;;;;;;;16.80;7.83;;;;;;;;;;5068697;28;20025;-64
2024/01/17 11:32:32;;;;;;;16.23;7.20;;;;;;;;;;5068153;28;20095;-65
2024/01/17 11:34:58;;;;;;;17.20;7.72;;;;;;;;;;5082634;28;20422;-66
2024/01/17 11:37:29;;;;;;;15.60;7.37;;;;;;;;;;5078173;28;20028;-65
2024/01/17 11:39:54;;;;;;;;;;;;;;;;;;5076463;28;20385;-65
2024/01/17 11:42:20;;;;;;;15.13;7.43;;;;;;;;;;5075258;28;20356;-66
2024/01/17 11:44:45;;;;;;;14.60;7.00;;;;;;;;;;5075896;28;20028;-65
2024/01/17 11:47:17;;;;;;;19.53;7.80;;;;;;;;;;5072096;28;21131;-66
2024/01/17 11:49:43;;;;;;;14.17;6.97;;;;;;;;;;5079990;28;20411;-65
2024/01/17 11:52:27;;;;;;;16.93;7.23;;;;;;;;;;5075252;28;20025;-66
2024/01/17 11:54:53;;;;;;;16.70;7.27;;;;;;;;;;5077186;28;20016;-65
2024/01/17 11:57:19;;;;;;;17.47;7.30;;;;;;;;;;5073730;28;20104;-65
2024/01/17 11:59:44;;;;;;;17.90;7.30;;;;;;;;;;5078655;28;20100;-66
2024/01/17 12:02:30;;;;;;;17.80;7.63;;;;;;;;;;5077341;28;20115;-65
2024/01/17 12:04:57;;;;;;;14.67;7.53;;;;;;;;;;5076060;28;20561;-66
2024/01/17 12:07:22;;;;;;;17.27;7.27;;;;;;;;;;5071968;28;20017;-66
2024/01/17 12:09:47;;;;;;;14.73;6.77;;;;;;;;;;5073466;28;20054;-65
2024/01/17 12:12:19;;;;;;;14.80;7.37;;;;;;;;;;5079380;28;20086;-64
2024/01/17 12:14:44;;;;;;;;;;;;;;;;;;5077049;28;20104;-66
2024/01/17 12:17:09;;;;;;;16.88;6.80;;;;;;;;;;5075166;28;19999;-66
2024/01/17 12:19:35;;;;;;;17.90;7.63;;;;;;;;;;5075535;28;20032;-65
2024/01/17 12:22:00;;;;;;;14.40;6.97;;;;;;;;;;5074804;28;20040;-65
2024/01/17 12:24:25;;;;;;;14.83;6.77;;;;;;;;;;5073481;28;20035;-66
2024/01/17 12:26:51;;;;;;;16.73;6.70;;;;;;;;;;5064626;28;20419;-65
2024/01/17 12:29:16;;;;;;;15.33;7.20;;;;;;;;;;5067284;28;20104;-65
2024/01/17 12:31:41;;;;;;;16.80;7.50;;;;;;;;;;5073729;28;20031;-66
2024/01/17 12:34:07;;;;;;;14.00;6.90;;;;;;;;;;5078177;28;20040;-65
2024/01/17 12:36:34;;;;;;;19.40;7.20;;;;;;;;;;5081210;28;20020;-65
2024/01/17 12:39:02;;;;;;;17.97;7.40;;;;;;;;;;5068854;28;20114;-65
2024/01/17 12:41:27;;;;;;;14.40;7.53;;;;;;;;;;5076925;28;20062;-65
2024/01/17 12:43:53;;;;;;;16.77;7.90;;;;;;;;;;5077806;28;20464;-65
2024/01/17 12:46:20;;;;;;;16.07;7.27;;;;;;;;;;5073304;28;20028;-66
2024/01/17 12:48:59;;;;;;;17.87;7.10;;;;;;;;;;5075566;28;20377;-65
2024/01/17 12:51:25;;;;;;;16.40;7.10;;;;;;;;;;5079497;28;20457;-66
2024/01/17 12:53:51;;;;;;;15.20;7.10;;;;;;;;;;5068640;28;20103;-65
2024/01/17 12:56:16;;;;;;;16.60;7.57;;;;;;;;;;5076707;28;20107;-65
2024/01/17 12:58:42;;;;;;;16.60;7.60;;;;;;;;;;5069002;28;20024;-64
2024/01/17 13:01:07;;;;;;;16.73;7.27;;;;;;;;;;5059726;28;20386;-65
2024/01/17 13:03:32;;;;;;;16.47;7.00;;;;;;;;;;5073541;28;20044;-65
2024/01/17 13:06:00;;;;;;;14.83;6.80;;;;;;;;;;5070412;28;20031;-65
2024/01/17 13:08:25;;;;;;;14.27;6.70;;;;;;;;;;5075203;28;20029;-65
2024/01/17 13:10:52;;;;;;;15.50;7.40;;;;;;;;;;5074793;28;20023;-66
2024/01/17 13:13:21;;;;;;;14.83;6.87;;;;;;;;;;5078014;28;20032;-66
2024/01/17 13:15:51;;;;;;;17.60;6.53;;;;;;;;;;5069081;28;20036;-65
2024/01/17 13:18:19;;;;;;;18.93;7.07;;;;;;;;;;5073042;28;20020;-65
2024/01/17 13:20:44;;;;;;;16.03;7.60;;;;;;;;;;5079735;28;20024;-65
2024/01/17 13:23:09;;;;;;;13.50;7.10;;;;;;;;;;5073883;28;20099;-66
2024/01/17 13:25:35;;;;;;;15.30;7.47;;;;;;;;;;5068474;28;20031;-71
2024/01/17 13:28:01;;;;;;;18.30;7.80;;;;;;;;;;5071900;28;20029;-65
2024/01/17 13:30:27;;;;;;;16.13;7.27;;;;;;;;;;5076458;28;20319;-64
2024/01/17 13:32:52;;;;;;;15.97;7.40;;;;;;;;;;5076715;28;20488;-65
2024/01/17 13:35:18;;;;;;;18.60;7.13;;;;;;;;;;5076491;28;20443;-65
2024/01/17 13:37:43;;;;;;;13.33;6.80;;;;;;;;;;5073125;28;20056;-65
2024/01/17 13:40:09;;;;;;;15.70;7.03;;;;;;;;;;5070431;28;20035;-65
2024/01/17 13:42:36;;;;;;;20.10;8.33;;;;;;;;;;5079552;28;20023;-65
2024/01/17 13:45:02;;;;;;;13.50;7.00;;;;;;;;;;5071670;28;20020;-65
2024/01/17 13:47:28;;;;;;;14.77;7.53;;;;;;;;;;5077529;28;20373;-65
2024/01/17 13:49:57;;;;;;;15.43;6.87;;;;;;;;;;5074445;28;20100;-65
2024/01/17 13:52:25;;;;;;;16.37;7.23;;;;;;;;;;5079404;28;20024;-65
2024/01/17 13:54:50;;;;;;;14.83;7.07;;;;;;;;;;5078553;28;20111;-66
2024/01/17 13:57:15;;;;;;;16.23;7.37;;;;;;;;;;5076128;28;20048;-66
2024/01/17 13:59:41;;;;;;;16.27;7.60;;;;;;;;;;5076303;28;20028;-65
2024/01/17 14:02:07;;;;;;;15.23;7.70;;;;;;;;;;5082601;28;20593;-65
2024/01/17 14:04:32;;;;;;;14.40;7.20;;;;;;;;;;5077459;28;20028;-64
2024/01/17 14:06:58;;;;;;;13.37;6.87;;;;;;;;;;5078319;28;20566;-65
2024/01/17 14:09:23;;;;;;;15.90;7.83;;;;;;;;;;5076352;28;20036;-65
2024/01/17 14:11:50;;;;;;;19.50;7.57;;;;;;;;;;5083008;28;20047;-65
2024/01/17 14:14:15;;;;;;;16.03;7.43;;;;;;;;;;5078311;28;20536;-65
2024/01/17 14:16:40;;;;;;;14.17;7.17;;;;;;;;;;5080588;28;20111;-65
2024/01/17 14:19:06;;;;;;;19.00;7.47;;;;;;;;;;5079164;28;20036;-66
2024/01/17 14:21:31;;;;;;;17.37;7.70;;;;;;;;;;5082930;28;20066;-65